Terminal Aerodrome Forecast
Issued by NWS Cleveland, OH

Home | Current Version | Previous Version | Text Only | Print | Product List | Glossary Off
Versions: 1 2 3 4 5 6 7 8 9 10 11 12 13 14 15 16 17 18 19 20 21

000
FTUS41 KCLE 190900 AAA
TAFCLE
TAF AMD
KCLE 190900Z 1909/2012 21008KT P6SM SKC WS020/23035KT
     FM191400 22012G20KT P6SM SCT250
     FM192000 25008KT P6SM SCT250=

USA.gov is the U.S. government's official web portal to all federal, state and local government web resources and services.